AZV2901 VTSP-UUWW
Flight info
| Callsign | AZV2901 |
|---|---|
| Flight time | N/A |
| Altitude | 32000 |
| Route | UPSAB1A UPSAB L515 OBMOG M770 KAKID M875 DOMET/N0500F340 M875 JHANG A466 SITAX M875 AMDAR/K0909F340 M875 FAZUL/K0898F360 M875 MILSO M161 LEDGI M166 ARISA L736 OLOPI OLOPI3A |
| Aircraft | B77W/H-SDE1E2E3FGHIJ2J3J4J5M1RWXY/LB1D1 |
Departure
| Time | N/A |
|---|---|
| Airport | Phuket International Airport (VTSP) |
Arrival
| Time | 2026-05-04 22:20 |
|---|---|
| Airport | Vnukovo International Airport (UUWW) |
| Time | Latitude | Longitude | Altitude | Speed | Heading |
|---|---|---|---|---|---|
| 2026-05-04 21:24 | 52.89526 | 45.12521 | 35994 ft | 474 kts | 290° |
| 2026-05-04 21:25 | 52.91700 | 45.02255 | 35988 ft | 474 kts | 290° |
| 2026-05-04 21:25 | 52.93909 | 44.92029 | 35989 ft | 475 kts | 291° |
| 2026-05-04 21:26 | 52.96216 | 44.81801 | 35999 ft | 476 kts | 292° |
| 2026-05-04 21:26 | 52.98517 | 44.71530 | 36004 ft | 475 kts | 292° |
| 2026-05-04 21:27 | 53.00795 | 44.61289 | 36002 ft | 476 kts | 292° |
| 2026-05-04 21:27 | 53.03079 | 44.50966 | 36007 ft | 477 kts | 292° |
| 2026-05-04 21:28 | 53.05347 | 44.40660 | 36000 ft | 477 kts | 292° |
| 2026-05-04 21:28 | 53.07602 | 44.30341 | 36003 ft | 479 kts | 291° |
| 2026-05-04 21:29 | 53.09870 | 44.19909 | 35997 ft | 479 kts | 291° |
| 2026-05-04 21:29 | 53.12117 | 44.09520 | 35996 ft | 479 kts | 291° |
| 2026-05-04 21:30 | 53.14353 | 43.99129 | 35992 ft | 480 kts | 291° |
| 2026-05-04 21:30 | 53.16586 | 43.88697 | 35992 ft | 479 kts | 291° |
| 2026-05-04 21:31 | 53.19907 | 43.73083 | 35999 ft | 479 kts | 291° |
| 2026-05-04 21:32 | 53.22117 | 43.62627 | 35984 ft | 478 kts | 291° |
| 2026-05-04 21:32 | 53.24313 | 43.52182 | 35985 ft | 479 kts | 291° |
| 2026-05-04 21:33 | 53.26504 | 43.41711 | 35995 ft | 480 kts | 291° |
| 2026-05-04 21:33 | 53.28698 | 43.31166 | 35980 ft | 479 kts | 290° |
| 2026-05-04 21:34 | 53.30868 | 43.20679 | 35978 ft | 480 kts | 290° |
| 2026-05-04 21:34 | 53.33031 | 43.10175 | 35978 ft | 479 kts | 290° |
| 2026-05-04 21:35 | 53.35181 | 42.99677 | 35972 ft | 478 kts | 290° |
| 2026-05-04 21:35 | 53.37318 | 42.89188 | 35982 ft | 479 kts | 290° |
| 2026-05-04 21:36 | 53.39440 | 42.78717 | 35972 ft | 479 kts | 290° |
| 2026-05-04 21:36 | 53.41565 | 42.68172 | 35977 ft | 480 kts | 290° |
| 2026-05-04 21:37 | 53.43687 | 42.57587 | 35970 ft | 480 kts | 290° |
| 2026-05-04 21:37 | 53.45800 | 42.46984 | 35967 ft | 480 kts | 289° |
| 2026-05-04 21:38 | 53.47699 | 42.36322 | 35970 ft | 480 kts | 288° |
| 2026-05-04 21:38 | 53.49576 | 42.25559 | 35967 ft | 480 kts | 287° |
| 2026-05-04 21:39 | 53.51436 | 42.14872 | 35961 ft | 480 kts | 287° |
| 2026-05-04 21:39 | 53.53301 | 42.04115 | 35959 ft | 480 kts | 287° |
| 2026-05-04 21:40 | 53.55148 | 41.93413 | 35956 ft | 480 kts | 287° |
| 2026-05-04 21:40 | 53.56995 | 41.82654 | 35956 ft | 480 kts | 287° |
| 2026-05-04 21:41 | 53.58839 | 41.71848 | 35955 ft | 481 kts | 287° |
| 2026-05-04 21:41 | 53.60661 | 41.61109 | 35957 ft | 481 kts | 287° |
| 2026-05-04 21:42 | 53.62477 | 41.50333 | 35954 ft | 480 kts | 287° |
| 2026-05-04 21:42 | 53.64288 | 41.39529 | 35955 ft | 479 kts | 287° |
| 2026-05-04 21:43 | 53.66081 | 41.28765 | 35961 ft | 480 kts | 286° |
| 2026-05-04 21:43 | 53.67872 | 41.17942 | 35957 ft | 480 kts | 286° |
| 2026-05-04 21:44 | 53.69640 | 41.07192 | 35954 ft | 481 kts | 286° |
| 2026-05-04 21:44 | 53.71877 | 40.96598 | 35963 ft | 480 kts | 294° |
| 2026-05-04 21:45 | 53.74561 | 40.86297 | 35961 ft | 479 kts | 295° |
| 2026-05-04 21:45 | 53.77215 | 40.76048 | 35958 ft | 479 kts | 294° |
| 2026-05-04 21:46 | 53.79857 | 40.65774 | 35958 ft | 480 kts | 295° |
| 2026-05-04 21:46 | 53.82510 | 40.55399 | 35956 ft | 480 kts | 294° |
| 2026-05-04 21:47 | 53.85129 | 40.45106 | 35957 ft | 480 kts | 294° |
| 2026-05-04 21:47 | 53.87745 | 40.34772 | 35954 ft | 479 kts | 294° |
| 2026-05-04 21:48 | 53.90369 | 40.24397 | 35954 ft | 478 kts | 294° |
| 2026-05-04 21:48 | 53.92975 | 40.14058 | 35951 ft | 479 kts | 294° |
| 2026-05-04 21:49 | 53.95575 | 40.03689 | 35950 ft | 480 kts | 294° |
| 2026-05-04 21:49 | 53.98161 | 39.93324 | 35812 ft | 474 kts | 294° |
| 2026-05-04 21:49 | 53.99446 | 39.88160 | 35087 ft | 478 kts | 294° |
| 2026-05-04 21:50 | 54.00726 | 39.82999 | 34126 ft | 483 kts | 294° |
| 2026-05-04 21:50 | 54.02024 | 39.77758 | 33226 ft | 485 kts | 293° |
| 2026-05-04 21:50 | 54.03336 | 39.72442 | 32372 ft | 486 kts | 293° |
| 2026-05-04 21:50 | 54.04632 | 39.67182 | 31517 ft | 488 kts | 293° |
| 2026-05-04 21:51 | 54.05942 | 39.61852 | 30675 ft | 488 kts | 293° |
| 2026-05-04 21:51 | 54.07231 | 39.56591 | 30192 ft | 481 kts | 293° |
| 2026-05-04 21:51 | 54.08496 | 39.51417 | 29738 ft | 474 kts | 293° |
| 2026-05-04 21:51 | 54.09756 | 39.46254 | 29217 ft | 468 kts | 292° |
| 2026-05-04 21:52 | 54.10994 | 39.41168 | 28684 ft | 463 kts | 293° |
| 2026-05-04 21:52 | 54.12212 | 39.36150 | 28155 ft | 458 kts | 292° |
| 2026-05-04 21:52 | 54.13407 | 39.31218 | 27624 ft | 453 kts | 291° |
| 2026-05-04 21:52 | 54.14589 | 39.26329 | 27109 ft | 448 kts | 291° |
| 2026-05-04 21:53 | 54.15778 | 39.21400 | 26577 ft | 443 kts | 291° |
| 2026-05-04 21:53 | 54.16935 | 39.16590 | 26052 ft | 438 kts | 291° |
| 2026-05-04 21:53 | 54.18073 | 39.11853 | 25554 ft | 433 kts | 291° |
| 2026-05-04 21:53 | 54.19183 | 39.07220 | 25425 ft | 418 kts | 291° |
| 2026-05-04 21:54 | 54.20271 | 39.02669 | 25347 ft | 404 kts | 291° |
| 2026-05-04 21:54 | 54.21311 | 38.98320 | 25207 ft | 391 kts | 292° |
| 2026-05-04 21:54 | 54.22547 | 38.94328 | 25052 ft | 380 kts | 303° |
| 2026-05-04 21:54 | 54.24171 | 38.90858 | 24891 ft | 369 kts | 314° |
| 2026-05-04 21:55 | 54.26117 | 38.88007 | 24809 ft | 372 kts | 324° |
| 2026-05-04 21:55 | 54.28369 | 38.85720 | 24759 ft | 384 kts | 331° |
| 2026-05-04 21:55 | 54.30743 | 38.83627 | 24680 ft | 383 kts | 331° |
| 2026-05-04 21:55 | 54.33102 | 38.81577 | 24601 ft | 382 kts | 332° |
| 2026-05-04 21:56 | 54.35460 | 38.79538 | 24525 ft | 382 kts | 332° |
| 2026-05-04 21:56 | 54.37839 | 38.77486 | 24448 ft | 381 kts | 332° |
| 2026-05-04 21:56 | 54.40182 | 38.75468 | 24372 ft | 381 kts | 332° |
| 2026-05-04 21:56 | 54.42548 | 38.73431 | 24295 ft | 380 kts | 332° |
| 2026-05-04 21:57 | 54.44905 | 38.71402 | 24215 ft | 379 kts | 332° |
| 2026-05-04 21:57 | 54.47268 | 38.69368 | 24139 ft | 379 kts | 332° |
| 2026-05-04 21:57 | 54.49592 | 38.67365 | 24062 ft | 378 kts | 332° |
| 2026-05-04 21:57 | 54.51950 | 38.65329 | 23982 ft | 378 kts | 332° |
| 2026-05-04 21:58 | 54.54272 | 38.63322 | 23905 ft | 376 kts | 331° |
| 2026-05-04 21:58 | 54.56629 | 38.61283 | 23832 ft | 377 kts | 332° |
| 2026-05-04 21:58 | 54.58936 | 38.59284 | 23758 ft | 376 kts | 332° |
| 2026-05-04 21:58 | 54.61279 | 38.57252 | 23681 ft | 375 kts | 332° |
| 2026-05-04 21:59 | 54.63593 | 38.55243 | 23605 ft | 374 kts | 331° |
| 2026-05-04 21:59 | 54.65901 | 38.53236 | 23528 ft | 374 kts | 331° |
| 2026-05-04 21:59 | 54.68209 | 38.51228 | 23457 ft | 373 kts | 331° |
| 2026-05-04 21:59 | 54.70517 | 38.49216 | 23382 ft | 373 kts | 331° |
| 2026-05-04 22:00 | 54.72841 | 38.47188 | 23304 ft | 372 kts | 331° |
| 2026-05-04 22:00 | 54.75132 | 38.45195 | 23226 ft | 371 kts | 332° |
| 2026-05-04 22:00 | 54.77448 | 38.43190 | 23151 ft | 371 kts | 331° |
| 2026-05-04 22:00 | 54.79729 | 38.41213 | 23077 ft | 370 kts | 332° |
| 2026-05-04 22:01 | 54.82008 | 38.39233 | 23002 ft | 369 kts | 331° |
| 2026-05-04 22:01 | 54.84339 | 38.37347 | 22920 ft | 371 kts | 338° |
| 2026-05-04 22:01 | 54.86834 | 38.36177 | 22835 ft | 374 kts | 348° |
| 2026-05-04 22:01 | 54.89392 | 38.35482 | 22749 ft | 375 kts | 349° |
| 2026-05-04 22:02 | 54.91955 | 38.34826 | 22658 ft | 374 kts | 348° |
| 2026-05-04 22:02 | 54.94519 | 38.34172 | 22575 ft | 373 kts | 348° |
| 2026-05-04 22:02 | 54.97102 | 38.33513 | 22490 ft | 373 kts | 348° |
| 2026-05-04 22:02 | 54.99649 | 38.32863 | 22404 ft | 373 kts | 348° |
| 2026-05-04 22:03 | 55.02221 | 38.32206 | 22317 ft | 373 kts | 348° |
| 2026-05-04 22:03 | 55.04749 | 38.31560 | 22234 ft | 371 kts | 348° |
| 2026-05-04 22:03 | 55.07317 | 38.30903 | 22148 ft | 371 kts | 348° |
| 2026-05-04 22:03 | 55.09837 | 38.30258 | 22062 ft | 370 kts | 348° |
| 2026-05-04 22:04 | 55.12398 | 38.29601 | 21980 ft | 369 kts | 348° |
| 2026-05-04 22:04 | 55.14901 | 38.28863 | 21890 ft | 367 kts | 342° |
| 2026-05-04 22:04 | 55.17308 | 38.27477 | 21714 ft | 366 kts | 336° |
| 2026-05-04 22:04 | 55.19675 | 38.25882 | 21362 ft | 364 kts | 335° |
| 2026-05-04 22:05 | 55.22013 | 38.24290 | 21060 ft | 360 kts | 335° |
| 2026-05-04 22:05 | 55.24335 | 38.22707 | 20776 ft | 359 kts | 335° |
| 2026-05-04 22:05 | 55.26652 | 38.21125 | 20503 ft | 358 kts | 335° |
| 2026-05-04 22:05 | 55.28985 | 38.19532 | 20236 ft | 357 kts | 335° |
| 2026-05-04 22:06 | 55.31260 | 38.17909 | 19949 ft | 354 kts | 330° |
| 2026-05-04 22:06 | 55.33338 | 38.15624 | 19689 ft | 349 kts | 321° |
| 2026-05-04 22:06 | 55.35280 | 38.13125 | 19491 ft | 348 kts | 320° |
| 2026-05-04 22:06 | 55.37207 | 38.10605 | 19270 ft | 346 kts | 320° |
| 2026-05-04 22:07 | 55.39131 | 38.08073 | 19053 ft | 345 kts | 320° |
| 2026-05-04 22:07 | 55.41042 | 38.05555 | 18830 ft | 344 kts | 320° |
| 2026-05-04 22:07 | 55.42946 | 38.03039 | 18599 ft | 342 kts | 320° |
| 2026-05-04 22:07 | 55.44814 | 38.00570 | 18377 ft | 333 kts | 320° |
| 2026-05-04 22:08 | 55.46632 | 37.98163 | 18171 ft | 325 kts | 320° |
| 2026-05-04 22:08 | 55.48415 | 37.95799 | 17970 ft | 317 kts | 320° |
| 2026-05-04 22:08 | 55.50083 | 37.93313 | 17660 ft | 313 kts | 314° |
| 2026-05-04 22:08 | 55.51678 | 37.90670 | 16574 ft | 326 kts | 314° |
| 2026-05-04 22:09 | 55.53319 | 37.87908 | 15307 ft | 342 kts | 314° |
| 2026-05-04 22:09 | 55.55056 | 37.84995 | 14022 ft | 355 kts | 314° |
| 2026-05-04 22:09 | 55.56864 | 37.81961 | 12808 ft | 362 kts | 313° |
| 2026-05-04 22:09 | 55.58377 | 37.78559 | 12127 ft | 348 kts | 297° |
| 2026-05-04 22:10 | 55.59274 | 37.74725 | 11687 ft | 331 kts | 286° |
| 2026-05-04 22:10 | 55.59894 | 37.70942 | 11406 ft | 313 kts | 284° |
| 2026-05-04 22:10 | 55.60431 | 37.67361 | 11213 ft | 294 kts | 283° |
| 2026-05-04 22:10 | 55.60921 | 37.63938 | 10926 ft | 281 kts | 283° |
| 2026-05-04 22:11 | 55.61381 | 37.60642 | 10480 ft | 275 kts | 283° |
| 2026-05-04 22:11 | 55.62148 | 37.57617 | 9952 ft | 274 kts | 308° |
| 2026-05-04 22:11 | 55.63613 | 37.55542 | 9526 ft | 275 kts | 333° |
| 2026-05-04 22:11 | 55.65486 | 37.54838 | 8916 ft | 283 kts | 1° |
| 2026-05-04 22:12 | 55.67405 | 37.55613 | 8455 ft | 284 kts | 17° |
| 2026-05-04 22:12 | 55.69254 | 37.56835 | 7862 ft | 288 kts | 18° |
| 2026-05-04 22:12 | 55.71118 | 37.58118 | 7282 ft | 289 kts | 18° |
| 2026-05-04 22:12 | 55.73030 | 37.59087 | 6757 ft | 281 kts | 358° |
| 2026-05-04 22:13 | 55.74851 | 37.58577 | 6329 ft | 264 kts | 332° |
| 2026-05-04 22:13 | 55.76283 | 37.56708 | 5723 ft | 255 kts | 303° |
| 2026-05-04 22:13 | 55.77224 | 37.54102 | 5281 ft | 250 kts | 297° |
| 2026-05-04 22:13 | 55.78071 | 37.51433 | 4724 ft | 251 kts | 296° |
| 2026-05-04 22:14 | 55.78916 | 37.48743 | 4230 ft | 250 kts | 296° |
| 2026-05-04 22:14 | 55.79766 | 37.46040 | 3730 ft | 249 kts | 296° |
| 2026-05-04 22:14 | 55.80583 | 37.43380 | 3295 ft | 244 kts | 290° |
| 2026-05-04 22:14 | 55.80848 | 37.40513 | 2936 ft | 234 kts | 263° |
| 2026-05-04 22:15 | 55.80384 | 37.37818 | 2722 ft | 227 kts | 240° |
| 2026-05-04 22:15 | 55.79371 | 37.35793 | 2695 ft | 217 kts | 219° |
| 2026-05-04 22:15 | 55.78048 | 37.34691 | 2683 ft | 208 kts | 197° |
| 2026-05-04 22:15 | 55.76636 | 37.34534 | 2672 ft | 198 kts | 182° |
| 2026-05-04 22:16 | 55.75312 | 37.34683 | 2663 ft | 182 kts | 182° |
| 2026-05-04 22:16 | 55.74108 | 37.34822 | 2651 ft | 168 kts | 183° |
| 2026-05-04 22:16 | 55.72948 | 37.34948 | 2653 ft | 167 kts | 183° |
| 2026-05-04 22:16 | 55.71787 | 37.35076 | 2665 ft | 167 kts | 182° |
| 2026-05-04 22:17 | 55.70657 | 37.35058 | 2637 ft | 160 kts | 204° |
| 2026-05-04 22:17 | 55.69670 | 37.34171 | 2454 ft | 158 kts | 211° |
| 2026-05-04 22:17 | 55.68691 | 37.33413 | 2255 ft | 146 kts | 207° |
| 2026-05-04 22:17 | 55.67799 | 37.32745 | 2095 ft | 137 kts | 209° |
| 2026-05-04 22:18 | 55.66906 | 37.32053 | 1927 ft | 139 kts | 208° |
| 2026-05-04 22:18 | 55.66019 | 37.31389 | 1717 ft | 138 kts | 208° |
| 2026-05-04 22:18 | 55.65147 | 37.30706 | 1552 ft | 138 kts | 208° |
| 2026-05-04 22:18 | 55.64235 | 37.30019 | 1387 ft | 145 kts | 204° |
| 2026-05-04 22:19 | 55.63294 | 37.29326 | 1160 ft | 147 kts | 207° |
| 2026-05-04 22:19 | 55.62368 | 37.28595 | 957 ft | 145 kts | 204° |
| 2026-05-04 22:19 | 55.61451 | 37.27893 | 781 ft | 145 kts | 204° |
| 2026-05-04 22:19 | 55.60541 | 37.27199 | 699 ft | 129 kts | 203° |
| 2026-05-04 22:20 | 55.59885 | 37.26700 | 699 ft | 76 kts | 203° |
| 2026-05-04 22:20 | 55.59568 | 37.26460 | 699 ft | 22 kts | 203° |
| 2026-05-04 22:20 | 55.59439 | 37.26340 | 699 ft | 19 kts | 230° |
| 2026-05-04 22:20 | 55.59383 | 37.26135 | 699 ft | 17 kts | 247° |
| 2026-05-04 22:21 | 55.59338 | 37.25941 | 699 ft | 16 kts | 248° |
| 2026-05-04 22:21 | 55.59307 | 37.25802 | 699 ft | 8 kts | 249° |
| 2026-05-04 22:21 | 55.59312 | 37.25720 | 699 ft | 6 kts | 313° |
| 2026-05-04 22:21 | 55.59347 | 37.25663 | 699 ft | 6 kts | 317° |
| 2026-05-04 22:22 | 55.59373 | 37.25604 | 699 ft | 5 kts | 290° |
| 2026-05-04 22:22 | 55.59388 | 37.25536 | 699 ft | 6 kts | 292° |
| 2026-05-04 22:22 | 55.59406 | 37.25460 | 699 ft | 6 kts | 293° |
| 2026-05-04 22:22 | 55.59425 | 37.25384 | 699 ft | 6 kts | 293° |
| 2026-05-04 22:23 | 55.59443 | 37.25312 | 699 ft | 6 kts | 293° |
| 2026-05-04 22:23 | 55.59460 | 37.25242 | 699 ft | 6 kts | 293° |
| 2026-05-04 22:23 | 55.59477 | 37.25173 | 699 ft | 6 kts | 292° |